Time;durP1;ratioP1;P1;durP2;ratioP2;P2;SDS_P1;SDS_P2;PMS_P1;PMS_P2;Temp;Humidity;BMP_temperature;BMP_pressure;BME280_temperature;BME280_humidity;BME280_pressure;Samples;Min_cycle;Max_cycle;Signal;HPM_P1;HPM_P2
2024/03/16 00:00:09;;;;;;;145.00;74.10;;;;;;;7.93;91.92;99596.02;105763;1253;61411;-67
2024/03/16 00:02:38;;;;;;;136.90;69.70;;;;;;;7.88;91.70;99599.91;105728;1254;75438;-66
2024/03/16 00:05:06;;;;;;;314.90;143.10;;;;;;;7.80;91.58;99596.64;105703;1261;69094;-65
2024/03/16 00:07:33;;;;;;;509.60;177.40;;;;;;;7.66;92.78;99596.86;105767;1256;71954;-64
2024/03/16 00:10:01;;;;;;;369.70;153.20;;;;;;;7.70;93.11;99596.73;105719;1258;61657;-66
2024/03/16 00:12:29;;;;;;;383.60;152.90;;;;;;;7.37;94.91;99595.39;105768;1257;61224;-67
2024/03/16 00:14:57;;;;;;;273.80;120.80;;;;;;;7.35;95.73;99592.96;105730;1253;74759;-65
2024/03/16 00:17:24;;;;;;;209.40;104.20;;;;;;;7.59;94.62;99595.06;105755;1253;68589;-67
2024/03/16 00:19:51;;;;;;;146.30;76.90;;;;;;;7.61;93.78;99594.09;105733;1259;72753;-67
2024/03/16 00:22:19;;;;;;;308.50;115.60;;;;;;;7.61;93.71;99594.98;105782;1257;62931;-65
2024/03/16 00:24:46;;;;;;;281.30;117.00;;;;;;;7.46;94.75;99593.96;105838;1257;61230;-66
2024/03/16 00:27:14;;;;;;;275.00;118.70;;;;;;;7.50;94.99;99596.40;105823;1254;74916;-66
2024/03/16 00:29:41;;;;;;;260.70;117.50;;;;;;;7.55;94.88;99595.08;105818;1253;67826;-66
2024/03/16 00:32:09;;;;;;;182.80;90.90;;;;;;;7.57;95.25;99591.27;105775;1257;72825;-69
2024/03/16 00:34:36;;;;;;;174.90;81.90;;;;;;;7.62;95.57;99592.71;105518;1257;61531;-66
2024/03/16 00:37:04;;;;;;;177.90;90.10;;;;;;;7.82;94.67;99592.34;105862;1253;61500;-66
2024/03/16 00:39:32;;;;;;;172.40;86.60;;;;;;;7.92;93.94;99592.19;105957;1254;74679;-66
2024/03/16 00:42:00;;;;;;;176.80;89.90;;;;;;;7.98;93.92;99591.67;105719;1253;68822;-64
2024/03/16 00:44:28;;;;;;;183.70;92.60;;;;;;;8.05;93.39;99592.20;105867;1254;72372;-64
2024/03/16 00:46:56;;;;;;;159.00;76.00;;;;;;;8.12;92.41;99589.77;105810;1254;61332;-66
2024/03/16 00:49:24;;;;;;;143.30;70.90;;;;;;;8.02;92.52;99592.43;105742;1254;61450;-64
2024/03/16 00:51:51;;;;;;;;;;;;;;;8.10;92.41;99592.13;105829;1259;73675;-66
2024/03/16 00:54:19;;;;;;;110.40;58.10;;;;;;;7.97;93.09;99591.91;105679;1254;68939;-69
2024/03/16 00:56:47;;;;;;;106.70;58.70;;;;;;;8.12;92.59;99591.14;105747;1258;71624;-64
2024/03/16 00:59:15;;;;;;;104.60;58.00;;;;;;;8.06;93.02;99590.77;105820;1255;61218;-66
2024/03/16 01:01:42;;;;;;;121.50;62.40;;;;;;;8.19;92.55;99592.89;105860;1253;61182;-66
2024/03/16 01:04:10;;;;;;;114.40;56.90;;;;;;;8.22;91.70;99593.12;105813;1254;74756;-67
2024/03/16 01:06:37;;;;;;;100.50;55.20;;;;;;;8.28;91.34;99591.47;105802;1254;68823;-66
2024/03/16 01:09:05;;;;;;;104.80;59.70;;;;;;;8.29;90.85;99594.07;105685;1254;72950;-66
2024/03/16 01:11:33;;;;;;;90.60;53.40;;;;;;;8.26;92.03;99594.80;105808;1254;61336;-67
2024/03/16 01:14:01;;;;;;;102.60;52.70;;;;;;;8.28;91.89;99592.38;105833;1259;61394;-68
2024/03/16 01:16:28;;;;;;;97.40;55.20;;;;;;;8.20;92.27;99595.38;105830;1254;74761;-67
2024/03/16 01:18:55;;;;;;;98.80;54.60;;;;;;;8.37;91.83;99595.41;105853;1254;67938;-66
2024/03/16 01:21:23;;;;;;;92.50;52.50;;;;;;;8.45;91.53;99594.55;105735;1259;71478;-67
2024/03/16 01:23:50;;;;;;;89.80;51.10;;;;;;;8.43;91.72;99595.90;105851;1254;61272;-67
2024/03/16 01:26:19;;;;;;;103.10;57.50;;;;;;;8.49;90.89;99597.85;105574;1254;61241;-66
2024/03/16 01:28:47;;;;;;;106.10;56.50;;;;;;;8.32;91.83;99601.23;105675;1254;73640;-66
2024/03/16 01:31:14;;;;;;;119.30;57.90;;;;;;;8.16;93.10;99601.35;105807;1259;68519;-65
2024/03/16 01:33:42;;;;;;;111.80;55.90;;;;;;;8.33;92.59;99599.27;105801;1259;72727;-67
2024/03/16 01:36:10;;;;;;;83.20;51.60;;;;;;;8.49;92.32;99603.23;105851;1254;61318;-68
2024/03/16 01:38:37;;;;;;;94.90;51.10;;;;;;;8.71;91.06;99597.77;105965;1256;61151;-66
2024/03/16 01:41:05;;;;;;;83.00;44.80;;;;;;;8.77;89.85;99599.86;105820;1259;73715;-64
2024/03/16 01:43:32;;;;;;;87.30;48.60;;;;;;;8.66;90.27;99598.80;105427;1254;69011;-66
2024/03/16 01:46:00;;;;;;;89.50;51.00;;;;;;;8.52;90.95;99597.96;105825;1259;71487;-66
2024/03/16 01:48:27;;;;;;;90.40;52.50;;;;;;;8.57;91.41;99586.77;105867;1254;61265;-66
2024/03/16 01:50:55;;;;;;;98.30;56.50;;;;;;;8.64;91.45;99582.33;105871;1258;61186;-66
2024/03/16 01:53:23;;;;;;;97.20;54.60;;;;;;;8.59;92.70;99576.80;105888;1257;74831;-67
2024/03/16 01:55:50;;;;;;;87.40;49.70;;;;;;;8.64;92.27;99577.89;105886;1254;69436;-67
2024/03/16 01:58:18;;;;;;;84.30;47.90;;;;;;;8.64;92.24;99583.61;105834;1253;71442;-63
2024/03/16 02:00:47;;;;;;;86.40;47.20;;;;;;;8.72;91.65;99590.83;105619;1262;61369;-66
2024/03/16 02:03:15;;;;;;;87.50;49.50;;;;;;;8.62;91.73;99597.40;105786;1258;61292;-67
2024/03/16 02:05:46;;;;;;;99.40;53.40;;;;;;;8.63;91.91;99598.00;105853;1252;73633;-69
2024/03/16 02:08:15;;;;;;;95.00;51.90;;;;;;;8.50;93.30;99592.47;105965;1257;67641;-68
2024/03/16 02:10:43;;;;;;;87.70;48.40;;;;;;;8.54;93.92;99597.19;105865;1254;73947;-66
2024/03/16 02:13:11;;;;;;;89.70;50.50;;;;;;;8.63;93.03;99600.02;105840;1257;61501;-67
2024/03/16 02:15:39;;;;;;;95.40;50.40;;;;;;;8.72;91.86;99602.77;105932;1254;60293;-67
2024/03/16 02:18:09;;;;;;;108.00;55.20;;;;;;;8.72;91.77;99601.59;105911;1254;73702;-66
2024/03/16 02:20:37;;;;;;;100.70;53.20;;;;;;;8.80;91.62;99604.09;105816;1254;68546;-67
2024/03/16 02:23:04;;;;;;;91.60;48.60;;;;;;;8.43;93.52;99604.58;105766;1254;72810;-65
2024/03/16 02:25:32;;;;;;;101.70;51.00;;;;;;;8.80;91.68;99605.20;105693;1256;61391;-64
2024/03/16 02:27:59;;;;;;;87.60;48.50;;;;;;;8.83;91.04;99604.55;105692;1257;61208;-67
2024/03/16 02:30:27;;;;;;;98.10;49.20;;;;;;;8.83;90.96;99607.08;105859;1254;75313;-68
2024/03/16 02:32:54;;;;;;;89.80;50.60;;;;;;;8.74;91.65;99609.11;105840;1254;68669;-66
2024/03/16 02:35:22;;;;;;;86.90;49.80;;;;;;;8.85;91.20;99608.09;105785;1254;72691;-68
2024/03/16 02:37:50;;;;;;;94.80;50.60;;;;;;;8.87;91.04;99611.43;105825;1254;61314;-67
2024/03/16 02:40:17;;;;;;;91.40;48.80;;;;;;;8.57;92.58;99617.20;105848;1255;61428;-69
2024/03/16 02:42:45;;;;;;;94.70;50.20;;;;;;;8.47;93.37;99618.88;105837;1259;74935;-70
2024/03/16 02:45:12;;;;;;;98.90;55.10;;;;;;;8.05;95.63;99617.95;105836;1254;68936;-64
2024/03/16 02:47:40;;;;;;;97.20;52.30;;;;;;;8.01;96.25;99617.63;105870;1257;72793;-66
2024/03/16 02:50:10;;;;;;;101.00;53.70;;;;;;;7.94;96.94;99618.25;105849;1254;61267;-66
2024/03/16 02:52:37;;;;;;;100.30;54.60;;;;;;;7.96;97.26;99621.95;105799;1254;61407;-67
2024/03/16 02:55:05;;;;;;;100.90;50.80;;;;;;;8.05;96.61;99620.91;105859;1259;74789;-65
2024/03/16 02:57:33;;;;;;;96.70;48.00;;;;;;;7.86;97.68;99620.98;105796;1254;68611;-66
2024/03/16 03:00:07;;;;;;;97.50;53.30;;;;;;;8.07;96.67;99617.95;105776;1254;72736;-68
2024/03/16 03:02:34;;;;;;;92.60;48.50;;;;;;;8.23;95.72;99621.17;105714;1254;61252;-68
2024/03/16 03:05:03;;;;;;;84.40;46.20;;;;;;;8.26;95.64;99616.26;105716;1259;61303;-68
2024/03/16 03:07:31;;;;;;;93.10;47.90;;;;;;;8.16;96.23;99615.73;105728;1259;73296;-68
2024/03/16 03:09:58;;;;;;;97.50;49.60;;;;;;;8.48;94.66;99620.06;105775;1254;68672;-67
2024/03/16 03:12:26;;;;;;;104.10;50.00;;;;;;;8.44;94.49;99625.40;105747;1254;72774;-67
2024/03/16 03:14:54;;;;;;;88.90;48.90;;;;;;;8.13;96.00;99622.17;105761;1254;61308;-67
2024/03/16 03:17:21;;;;;;;92.80;52.60;;;;;;;8.22;95.99;99622.77;105719;1255;61515;-66
2024/03/16 03:19:49;;;;;;;102.30;54.60;;;;;;;8.31;95.44;99624.16;105609;1259;74831;-64
2024/03/16 03:22:17;;;;;;;118.90;58.80;;;;;;;8.37;95.09;99629.65;105557;1257;68820;-67
2024/03/16 03:24:44;;;;;;;107.30;52.10;;;;;;;8.23;95.93;99627.68;105718;1258;72808;-66
2024/03/16 03:27:12;;;;;;;103.90;50.20;;;;;;;8.27;95.99;99623.91;105677;1256;61428;-67
2024/03/16 03:29:39;;;;;;;108.70;56.20;;;;;;;8.16;96.39;99620.34;105625;1257;61414;-66
2024/03/16 03:32:07;;;;;;;137.60;70.10;;;;;;;8.10;96.94;99621.44;105714;1255;73241;-69
2024/03/16 03:34:35;;;;;;;133.30;68.20;;;;;;;8.15;96.93;99621.54;105684;1258;69156;-66
2024/03/16 03:37:03;;;;;;;114.90;60.10;;;;;;;8.12;97.12;99621.44;105654;1258;73105;-67
2024/03/16 03:39:30;;;;;;;104.00;60.50;;;;;;;8.22;96.89;99620.19;105713;1256;61294;-67
2024/03/16 03:41:58;;;;;;;100.40;58.30;;;;;;;8.27;96.54;99622.80;105709;1258;61251;-66
2024/03/16 03:44:35;;;;;;;95.40;54.70;;;;;;;8.42;96.09;99621.73;105726;1258;75284;-66
2024/03/16 03:47:03;;;;;;;99.10;54.90;;;;;;;8.50;95.24;99624.11;105741;1258;66636;-69
2024/03/16 03:49:35;;;;;;;110.80;52.50;;;;;;;8.39;95.92;99623.15;105699;1256;72728;-66
2024/03/16 03:52:03;;;;;;;107.70;51.80;;;;;;;8.33;96.02;99619.83;105683;1256;61342;-69
2024/03/16 03:54:34;;;;;;;93.30;50.40;;;;;;;8.41;96.02;99617.46;105608;1256;61418;-67
2024/03/16 03:57:03;;;;;;;97.70;50.50;;;;;;;8.37;96.27;99623.80;105607;1256;74813;-68
2024/03/16 03:59:32;;;;;;;97.20;52.50;;;;;;;8.72;94.25;99618.88;105609;1262;69188;-66
2024/03/16 04:01:59;;;;;;;109.60;54.30;;;;;;;8.60;94.46;99624.33;105616;1258;72837;-69
2024/03/16 04:04:27;;;;;;;113.30;53.40;;;;;;;8.40;95.26;99622.16;105589;1257;61322;-66
2024/03/16 04:06:54;;;;;;;87.70;48.00;;;;;;;8.45;95.34;99621.79;105643;1256;61337;-74
2024/03/16 04:09:22;;;;;;;95.20;50.10;;;;;;;8.67;94.15;99627.04;105519;1261;73797;-66
2024/03/16 04:11:49;;;;;;;99.70;51.80;;;;;;;8.64;94.31;99625.03;105541;1262;67561;-66
2024/03/16 04:14:17;;;;;;;91.50;49.10;;;;;;;8.57;94.40;99625.29;105502;1261;71706;-65
2024/03/16 04:16:45;;;;;;;96.00;49.60;;;;;;;8.58;94.44;99628.73;105697;1261;61443;-67
2024/03/16 04:19:12;;;;;;;95.10;49.80;;;;;;;8.66;93.74;99628.55;105682;1257;61380;-67
2024/03/16 04:21:42;;;;;;;97.80;49.30;;;;;;;8.74;93.06;99629.73;105671;1260;74727;-67
2024/03/16 04:24:09;;;;;;;95.30;50.80;;;;;;;8.74;92.92;99628.13;105651;1262;67622;-66
2024/03/16 04:26:37;;;;;;;94.80;50.80;;;;;;;8.57;93.74;99629.23;105647;1256;73040;-69
2024/03/16 04:29:05;;;;;;;70.00;38.70;;;;;;;8.50;94.54;99624.88;105484;1262;61311;-66
2024/03/16 04:31:33;;;;;;;100.30;52.10;;;;;;;8.47;95.08;99629.21;105379;1258;61208;-65
2024/03/16 04:34:01;;;;;;;102.00;51.40;;;;;;;8.57;94.54;99630.27;105695;1257;75098;-68
2024/03/16 04:36:28;;;;;;;98.30;52.80;;;;;;;8.77;93.07;99629.35;105691;1261;67629;-66
2024/03/16 04:38:56;;;;;;;102.30;52.20;;;;;;;8.77;92.68;99630.32;105783;1257;72729;-66
2024/03/16 04:41:24;;;;;;;90.90;48.80;;;;;;;8.71;92.85;99626.92;105867;1254;61221;-68
2024/03/16 04:43:51;;;;;;;109.20;52.50;;;;;;;8.69;93.11;99625.83;105749;1253;61336;-66
2024/03/16 04:46:19;;;;;;;109.10;55.40;;;;;;;8.50;94.09;99624.19;105848;1259;73443;-70
2024/03/16 04:48:46;;;;;;;110.10;55.60;;;;;;;8.39;94.72;99624.88;105738;1260;67664;-67
2024/03/16 04:51:14;;;;;;;109.90;55.40;;;;;;;8.19;96.65;99622.95;105848;1255;71507;-67
2024/03/16 04:53:42;;;;;;;110.20;56.50;;;;;;;8.23;96.88;99623.63;105808;1254;61472;-68
2024/03/16 04:56:09;;;;;;;120.20;57.00;;;;;;;8.52;95.14;99624.11;105833;1260;61160;-66
2024/03/16 04:58:37;;;;;;;104.50;52.90;;;;;;;8.49;94.93;99624.38;105836;1259;74753;-68
2024/03/16 05:01:05;;;;;;;122.90;64.90;;;;;;;8.51;94.98;99624.52;105822;1259;67737;-65
2024/03/16 05:03:33;;;;;;;;;;;;;;;8.46;95.18;99620.36;105769;1260;72837;-65
2024/03/16 05:06:00;;;;;;;133.00;69.30;;;;;;;8.59;94.65;99621.67;105744;1259;61304;-67
2024/03/16 05:08:29;;;;;;;115.30;63.40;;;;;;;8.65;94.30;99619.45;105862;1254;61346;-69
2024/03/16 05:10:58;;;;;;;118.30;58.70;;;;;;;8.56;94.89;99623.41;105879;1254;75264;-67
2024/03/16 05:13:29;;;;;;;120.50;55.80;;;;;;;8.68;94.53;99619.17;105839;1254;69288;-67
2024/03/16 05:16:07;;;;;;;119.40;55.50;;;;;;;8.85;93.56;99618.68;105862;1257;72860;-66
2024/03/16 05:18:35;;;;;;;114.90;57.10;;;;;;;8.89;93.03;99620.34;105515;1254;61343;-67
2024/03/16 05:21:04;;;;;;;107.10;53.90;;;;;;;8.65;93.94;99621.10;105779;1254;61320;-67
2024/03/16 05:23:31;;;;;;;105.50;52.70;;;;;;;8.56;94.83;99626.59;105629;1253;73149;-68
2024/03/16 05:25:59;;;;;;;107.10;54.90;;;;;;;8.59;94.81;99622.60;105837;1257;67854;-68
2024/03/16 05:28:27;;;;;;;96.70;50.80;;;;;;;8.72;94.17;99625.05;105866;1256;72801;-67
2024/03/16 05:30:54;;;;;;;98.50;52.50;;;;;;;8.89;93.56;99626.44;105629;1260;61318;-68
2024/03/16 05:33:22;;;;;;;92.50;49.40;;;;;;;8.97;93.47;99628.41;105585;1253;203133;-66
2024/03/16 05:35:49;;;;;;;97.20;50.10;;;;;;;9.04;92.96;99624.73;105757;1253;74799;-70
2024/03/16 05:38:17;;;;;;;103.00;51.90;;;;;;;9.04;92.38;99619.80;105783;1253;69456;-68
2024/03/16 05:40:46;;;;;;;111.50;54.60;;;;;;;9.11;92.01;99620.58;105802;1258;72210;-70
2024/03/16 05:43:13;;;;;;;106.40;56.10;;;;;;;9.12;92.25;99622.08;105801;1257;61400;-72
2024/03/16 05:45:41;;;;;;;105.40;50.50;;;;;;;9.26;91.55;99625.85;105816;1253;61423;-72
2024/03/16 05:48:08;;;;;;;112.40;54.80;;;;;;;9.32;91.27;99622.13;105758;1255;75275;-70
2024/03/16 05:50:36;;;;;;;115.90;53.10;;;;;;;9.30;91.19;99623.83;105801;1257;67558;-70
2024/03/16 05:53:03;;;;;;;113.50;54.30;;;;;;;9.31;91.17;99622.81;105745;1256;72797;-67
2024/03/16 05:55:31;;;;;;;104.10;54.80;;;;;;;9.29;91.47;99623.91;105816;1259;61256;-69
2024/03/16 05:57:58;;;;;;;102.30;54.30;;;;;;;9.24;91.75;99620.41;106141;1257;59244;-69
2024/03/16 06:00:26;;;;;;;111.60;51.00;;;;;;;9.28;91.85;99621.86;106373;1253;73459;-70
2024/03/16 06:02:55;;;;;;;110.70;57.50;;;;;;;9.21;92.63;99620.52;107089;1258;68585;-69
2024/03/16 06:05:23;;;;;;;108.80;51.10;;;;;;;9.19;92.80;99620.27;106954;1258;71843;-70
2024/03/16 06:07:51;;;;;;;109.20;52.20;;;;;;;9.21;92.97;99621.20;107422;1252;61339;-70
2024/03/16 06:10:18;;;;;;;103.50;54.20;;;;;;;9.35;92.25;99622.88;107503;1256;61151;-70
2024/03/16 06:12:46;;;;;;;95.90;46.50;;;;;;;9.37;92.31;99619.39;107468;1253;73772;-70
2024/03/16 06:15:14;;;;;;;87.30;42.20;;;;;;;9.40;91.92;99624.46;107385;1257;67072;-70
2024/03/16 06:17:41;;;;;;;102.50;50.90;;;;;;;9.47;91.42;99628.70;106802;1257;72682;-66
2024/03/16 06:20:12;;;;;;;122.60;58.30;;;;;;;9.76;90.50;99627.84;105844;1253;61229;-72
2024/03/16 06:22:41;;;;;;;100.50;46.20;;;;;;;9.71;89.83;99624.86;106012;1254;61410;-68
2024/03/16 06:25:11;;;;;;;117.60;59.30;;;;;;;9.77;89.79;99625.94;105734;1253;74788;-70
2024/03/16 06:27:49;;;;;;;99.90;48.20;;;;;;;9.77;89.45;99629.14;105868;1256;68934;-68
2024/03/16 06:30:18;;;;;;;93.10;46.30;;;;;;;9.75;89.54;99630.23;105885;1255;71472;-73
2024/03/16 06:33:32;;;;;;;91.90;44.50;;;;;;;9.96;88.21;99635.84;105725;1257;61327;-77
2024/03/16 06:35:36;;;;;;;76.40;37.00;;;;;;;9.74;88.29;99629.10;105798;1257;61237;-68
2024/03/16 06:38:04;;;;;;;80.90;44.30;;;;;;;9.46;90.21;99633.08;105849;1254;72597;-68
2024/03/16 06:40:31;;;;;;;88.80;46.40;;;;;;;9.73;88.97;99640.08;105847;1259;67397;-74
2024/03/16 06:42:58;;;;;;;80.80;42.00;;;;;;;9.64;89.23;99637.99;105794;1255;73305;-70
2024/03/16 06:45:26;;;;;;;99.10;47.00;;;;;;;9.75;88.54;99640.86;105767;1257;61336;-69
2024/03/16 06:47:53;;;;;;;96.40;49.60;;;;;;;9.80;88.47;99642.59;105741;1252;61336;-69
2024/03/16 06:50:21;;;;;;;100.60;49.90;;;;;;;10.15;86.64;99642.96;105826;1257;73806;-69
2024/03/16 06:52:49;;;;;;;97.70;51.70;;;;;;;9.94;86.49;99643.96;105761;1260;67228;-67
2024/03/16 06:55:17;;;;;;;91.20;46.00;;;;;;;9.87;87.06;99642.41;105603;1261;72110;-67
2024/03/16 06:57:45;;;;;;;94.40;45.30;;;;;;;9.75;86.93;99640.70;105698;1257;61343;-68
2024/03/16 07:00:14;;;;;;;92.00;49.50;;;;;;;9.64;88.06;99639.02;105605;1259;61306;-67
2024/03/16 07:02:42;;;;;;;102.90;50.40;;;;;;;9.74;88.05;99641.98;105619;1255;74850;-69
2024/03/16 07:05:09;;;;;;;87.40;40.00;;;;;;;9.83;87.39;99646.87;105634;1256;69023;-66
2024/03/16 07:07:37;;;;;;;70.70;35.30;;;;;;;9.82;87.24;99646.16;105713;1260;71490;-65
2024/03/16 07:10:05;;;;;;;107.40;53.80;;;;;;;9.83;87.28;99647.52;105763;1253;61526;-68
2024/03/16 07:12:33;;;;;;;;;;;;;;;9.69;87.82;99650.46;105707;1257;61219;-66
2024/03/16 07:15:00;;;;;;;88.20;42.40;;;;;;;9.73;88.48;99649.56;105780;1257;74820;-71
2024/03/16 07:17:31;;;;;;;104.50;49.30;;;;;;;10.03;86.52;99651.81;105681;1257;69001;-71
2024/03/16 07:19:58;;;;;;;97.10;47.10;;;;;;;10.21;85.54;99656.73;105693;1257;72837;-68
2024/03/16 07:22:27;;;;;;;100.30;52.30;;;;;;;10.49;83.89;99660.15;105806;1257;61310;-68
2024/03/16 07:24:54;;;;;;;111.40;56.80;;;;;;;11.17;80.32;99661.83;105608;1254;61343;-69
2024/03/16 07:27:22;;;;;;;104.80;61.10;;;;;;;11.09;78.64;99665.19;105734;1260;75946;-68
2024/03/16 07:29:49;;;;;;;83.90;45.90;;;;;;;10.72;80.47;99666.54;105811;1257;68786;-67
2024/03/16 07:32:17;;;;;;;92.60;49.30;;;;;;;10.45;81.70;99665.57;105577;1259;72774;-72
2024/03/16 07:34:45;;;;;;;86.80;42.60;;;;;;;10.61;81.57;99670.91;105703;1254;61298;-66
2024/03/16 07:37:14;;;;;;;62.30;35.50;;;;;;;10.96;79.41;99671.34;105705;1257;62786;-66
2024/03/16 07:39:42;;;;;;;71.00;40.90;;;;;;;11.10;77.73;99675.73;105859;1257;74716;-68
2024/03/16 07:42:09;;;;;;;75.30;42.30;;;;;;;11.11;77.00;99678.30;105775;1257;67426;-68
2024/03/16 07:44:40;;;;;;;64.70;34.60;;;;;;;11.09;78.06;99677.88;105922;1252;72552;-65
2024/03/16 07:47:07;;;;;;;80.80;44.20;;;;;;;11.19;77.10;99678.23;105638;1259;61253;-68
2024/03/16 07:49:35;;;;;;;68.00;35.40;;;;;;;11.23;76.32;99681.44;105739;1257;61355;-67
2024/03/16 07:52:03;;;;;;;82.30;46.20;;;;;;;11.34;75.06;99681.58;105715;1254;74706;-65
2024/03/16 07:54:31;;;;;;;;;;;;;;;11.11;76.05;99677.44;105591;1257;69152;-66
2024/03/16 07:56:58;;;;;;;76.10;41.20;;;;;;;11.22;76.26;99677.89;105768;1257;72742;-67
2024/03/16 07:59:26;;;;;;;69.60;38.30;;;;;;;11.41;74.88;99676.33;105935;1254;61211;-69
2024/03/16 08:01:53;;;;;;;58.60;31.90;;;;;;;11.52;73.39;99677.42;105752;1254;61333;-70
2024/03/16 08:04:21;;;;;;;62.00;35.00;;;;;;;11.49;72.25;99679.14;105784;1266;74976;-67
2024/03/16 08:06:48;;;;;;;60.40;37.30;;;;;;;11.40;72.16;99679.17;105792;1257;68660;-69
2024/03/16 08:09:16;;;;;;;92.40;52.40;;;;;;;11.48;71.50;99682.09;105778;1255;72325;-67
2024/03/16 08:11:43;;;;;;;70.80;41.70;;;;;;;11.58;70.68;99683.46;105659;1260;61747;-68
2024/03/16 08:14:11;;;;;;;66.20;34.30;;;;;;;11.62;69.80;99684.77;105696;1260;61174;-67
2024/03/16 08:16:39;;;;;;;56.30;30.70;;;;;;;11.17;71.91;99684.61;105657;1260;74663;-67
2024/03/16 08:19:06;;;;;;;54.70;33.70;;;;;;;10.99;72.89;99684.70;105644;1260;67644;-67
2024/03/16 08:21:34;;;;;;;58.00;36.50;;;;;;;11.11;71.96;99688.30;105568;1260;72499;-71
2024/03/16 08:24:01;;;;;;;74.40;40.90;;;;;;;11.27;71.84;99686.42;105489;1259;61272;-67
2024/03/16 08:26:29;;;;;;;57.80;33.00;;;;;;;11.37;70.91;99685.16;105500;1259;61330;-69
2024/03/16 08:28:56;;;;;;;97.30;54.30;;;;;;;11.47;70.36;99685.09;105517;1254;74916;-68
2024/03/16 08:31:24;;;;;;;49.90;27.70;;;;;;;11.57;69.29;99686.45;105402;1254;69151;-68
2024/03/16 08:33:51;;;;;;;59.70;36.20;;;;;;;11.52;69.50;99683.13;105691;1254;72740;-69
2024/03/16 08:36:19;;;;;;;138.90;72.90;;;;;;;11.53;69.51;99680.23;105706;1260;61260;-69
2024/03/16 08:38:46;;;;;;;112.10;60.40;;;;;;;11.41;70.31;99682.20;105510;1258;61240;-68
2024/03/16 08:41:14;;;;;;;44.80;27.50;;;;;;;11.61;69.40;99679.23;105376;1260;73743;-69
2024/03/16 08:43:41;;;;;;;61.40;37.90;;;;;;;11.85;67.50;99685.49;105735;1257;67592;-71
2024/03/16 08:46:10;;;;;;;49.60;29.50;;;;;;;11.93;67.19;99680.60;105734;1257;72094;-71
2024/03/16 08:48:37;;;;;;;48.40;29.90;;;;;;;11.56;68.24;99675.85;105772;1259;61246;-68
2024/03/16 08:51:05;;;;;;;49.20;32.50;;;;;;;11.77;67.27;99680.70;105722;1254;61357;-70
2024/03/16 08:53:32;;;;;;;44.70;25.50;;;;;;;11.63;66.45;99677.85;105670;1254;75286;-71
2024/03/16 08:56:01;;;;;;;47.40;30.00;;;;;;;11.13;69.83;99675.02;105752;1266;67834;-68
2024/03/16 08:58:29;;;;;;;53.10;32.30;;;;;;;10.95;71.18;99674.19;105667;1254;72718;-70
2024/03/16 09:00:58;;;;;;;;;;;;;;;11.32;69.53;99673.61;105671;1253;61335;-68
2024/03/16 09:03:26;;;;;;;55.80;34.90;;;;;;;11.53;67.95;99671.42;105809;1254;61301;-65
2024/03/16 09:05:53;;;;;;;46.40;29.30;;;;;;;11.86;66.65;99672.17;105718;1260;74898;-66
2024/03/16 09:08:21;;;;;;;44.80;26.20;;;;;;;12.17;64.91;99668.48;105793;1254;69473;-67
2024/03/16 09:10:48;;;;;;;47.60;28.60;;;;;;;11.83;65.69;99671.21;105750;1260;72848;-68
2024/03/16 09:13:15;;;;;;;46.00;29.10;;;;;;;11.61;67.54;99669.77;105829;1257;61231;-71
2024/03/16 09:15:43;;;;;;;55.80;30.50;;;;;;;11.63;66.66;99669.62;105654;1257;61160;-68
2024/03/16 09:18:11;;;;;;;48.10;29.80;;;;;;;11.55;67.35;99667.95;105778;1255;75084;-68
2024/03/16 09:20:43;;;;;;;53.90;30.60;;;;;;;11.75;67.03;99671.21;105754;1255;68573;-69
2024/03/16 09:23:13;;;;;;;49.90;30.30;;;;;;;11.68;67.44;99665.78;105953;1255;70639;-67
2024/03/16 09:25:41;;;;;;;48.80;29.30;;;;;;;11.98;65.45;99666.94;105754;1254;61346;-67
2024/03/16 09:28:13;;;;;;;46.50;28.00;;;;;;;12.06;64.90;99669.02;105771;1254;61322;-67
2024/03/16 09:30:44;;;;;;;53.50;32.30;;;;;;;12.05;65.21;99666.48;105724;1254;74788;-68
2024/03/16 09:33:12;;;;;;;53.50;30.80;;;;;;;12.03;64.81;99664.27;105767;1257;68621;-68
2024/03/16 09:35:41;;;;;;;56.00;35.90;;;;;;;12.08;65.27;99664.95;105738;1254;72668;-67
2024/03/16 09:38:10;;;;;;;54.20;31.50;;;;;;;12.27;63.81;99672.30;105536;1263;61442;-69
2024/03/16 09:40:43;;;;;;;52.80;35.60;;;;;;;12.30;63.74;99673.23;105763;1257;61336;-69
2024/03/16 09:43:11;;;;;;;50.60;31.20;;;;;;;12.56;62.94;99674.95;105744;1257;74835;-68
2024/03/16 09:45:42;;;;;;;61.60;36.50;;;;;;;12.70;61.57;99672.75;105760;1261;68870;-70
2024/03/16 09:48:10;;;;;;;46.10;28.70;;;;;;;12.67;60.77;99672.14;105646;1254;71480;-70
2024/03/16 09:50:40;;;;;;;96.10;62.40;;;;;;;12.48;61.66;99667.96;105704;1254;61747;-69
2024/03/16 09:53:09;;;;;;;68.00;47.70;;;;;;;12.42;62.78;99668.38;105769;1257;61234;-69
2024/03/16 09:55:36;;;;;;;53.30;32.80;;;;;;;12.40;62.79;99662.84;105725;1254;74771;-69
2024/03/16 09:58:07;;;;;;;54.10;33.30;;;;;;;12.32;63.54;99663.13;105654;1258;68784;-70
2024/03/16 10:00:35;;;;;;;54.90;34.30;;;;;;;12.49;62.91;99664.38;105700;1256;70541;-67
2024/03/16 10:03:03;;;;;;;50.20;31.40;;;;;;;12.68;62.46;99656.30;105609;1263;61835;-68
2024/03/16 10:05:30;;;;;;;55.00;33.20;;;;;;;12.80;61.93;99655.64;105551;1262;61148;-71
2024/03/16 10:07:58;;;;;;;79.90;50.60;;;;;;;12.68;61.95;99659.02;105650;1261;73668;-68
2024/03/16 10:10:25;;;;;;;61.90;38.30;;;;;;;12.72;61.55;99658.10;105645;1260;67297;-68
2024/03/16 10:13:03;;;;;;;52.60;31.20;;;;;;;12.96;60.40;99656.36;105654;1260;71906;-68
2024/03/16 10:15:31;;;;;;;48.90;30.20;;;;;;;13.32;59.37;99657.45;105378;1254;61874;-68
2024/03/16 10:17:59;;;;;;;51.80;30.40;;;;;;;13.32;58.80;99655.09;105644;1256;61477;-69
2024/03/16 10:20:27;;;;;;;62.90;41.20;;;;;;;13.27;58.69;99654.44;105551;1258;75065;-68
2024/03/16 10:22:54;;;;;;;49.50;27.80;;;;;;;13.47;57.97;99653.73;105625;1260;68828;-70
2024/03/16 10:25:22;;;;;;;55.00;35.70;;;;;;;13.40;57.97;99653.00;105578;1260;71817;-68
2024/03/16 10:27:49;;;;;;;49.40;31.90;;;;;;;12.74;59.87;99653.83;105319;1257;61665;-67
2024/03/16 10:30:17;;;;;;;51.10;31.80;;;;;;;12.85;60.50;99651.83;105455;1254;61574;-71
2024/03/16 10:32:49;;;;;;;55.20;34.60;;;;;;;13.03;59.73;99650.47;105798;1257;74796;-69
2024/03/16 10:35:22;;;;;;;58.20;35.20;;;;;;;12.90;60.32;99650.43;105707;1257;67619;-69
2024/03/16 10:37:50;;;;;;;44.60;28.70;;;;;;;13.25;59.23;99648.71;105744;1254;72799;-67
2024/03/16 10:40:19;;;;;;;48.20;30.40;;;;;;;13.49;58.25;99649.44;105711;1255;61862;-69
2024/03/16 10:42:48;;;;;;;48.00;29.80;;;;;;;13.38;57.62;99647.71;105766;1258;61168;-67
2024/03/16 10:45:20;;;;;;;50.50;31.00;;;;;;;13.35;57.51;99644.80;105757;1254;74854;-68
2024/03/16 10:47:51;;;;;;;58.30;34.70;;;;;;;13.36;58.23;99643.38;105718;1257;67754;-67
2024/03/16 10:50:20;;;;;;;51.50;30.70;;;;;;;13.76;56.95;99640.89;105710;1254;71428;-67
2024/03/16 10:52:48;;;;;;;38.50;24.40;;;;;;;13.66;56.68;99639.12;105772;1254;61808;-67
2024/03/16 10:55:22;;;;;;;41.40;27.10;;;;;;;13.70;56.40;99635.77;105828;1253;61184;-69
2024/03/16 10:57:50;;;;;;;49.80;32.00;;;;;;;13.50;56.75;99631.25;105945;1255;75242;-70
2024/03/16 11:00:20;;;;;;;40.50;27.70;;;;;;;13.52;56.53;99632.45;105712;1257;67479;-68
2024/03/16 11:02:51;;;;;;;46.00;27.80;;;;;;;13.81;55.77;99634.17;105656;1257;73244;-70
2024/03/16 11:05:47;;;;;;;45.20;27.30;;;;;;;13.81;56.04;99632.66;105621;1254;61905;-68
2024/03/16 11:08:14;;;;;;;45.30;27.30;;;;;;;13.69;55.86;99629.88;105603;1257;61252;-69
2024/03/16 11:10:42;;;;;;;46.80;29.40;;;;;;;13.87;55.30;99628.67;105747;1257;74661;-70
2024/03/16 11:13:16;;;;;;;43.70;27.20;;;;;;;13.65;56.06;99626.77;105661;1262;68174;-67
2024/03/16 11:15:44;;;;;;;73.80;41.10;;;;;;;13.89;55.61;99621.91;105727;1254;72837;-71